Time;durP1;ratioP1;P1;durP2;ratioP2;P2;SDS_P1;SDS_P2;PMS_P1;PMS_P2;Temp;Humidity;BMP_temperature;BMP_pressure;BME280_temperature;BME280_humidity;BME280_pressure;Samples;Min_cycle;Max_cycle;Signal;HPM_P1;HPM_P2
2021/08/05 00:02:19;;;;;;;22.50;19.20;;;;;;;16.63;74.15;99495.94;4921977;29;20110;-63
2021/08/05 00:05:08;;;;;;;20.85;18.48;;;;;;;16.60;74.10;99488.97;4922215;29;20052;-63
2021/08/05 00:07:58;;;;;;;23.08;18.92;;;;;;;16.60;74.02;99488.97;4936159;29;20051;-64
2021/08/05 00:10:47;;;;;;;20.27;18.10;;;;;;;16.61;74.17;99485.47;4936061;29;20070;-64
2021/08/05 00:13:31;;;;;;;20.35;18.25;;;;;;;16.61;74.00;99487.25;4921873;29;20416;-63
2021/08/05 00:16:20;;;;;;;20.90;18.65;;;;;;;16.60;74.10;99481.13;4921885;29;20525;-64
2021/08/05 00:19:04;;;;;;;22.60;18.45;;;;;;;16.60;74.12;99481.13;4921753;29;20047;-63
2021/08/05 00:21:50;;;;;;;22.30;19.23;;;;;;;16.60;74.15;99486.34;4940165;29;20130;-63
2021/08/05 00:24:35;;;;;;;25.45;19.98;;;;;;;16.59;74.27;99482.91;4925687;29;20051;-64
2021/08/05 00:27:27;;;;;;;23.02;20.77;;;;;;;16.60;74.32;99483.75;4939593;29;20047;-63
2021/08/05 00:30:22;;;;;;;22.52;19.13;;;;;;;16.60;74.28;99481.13;4925797;29;20110;-64
2021/08/05 00:33:08;;;;;;;22.95;19.45;;;;;;;16.58;74.21;99478.56;4939652;29;20051;-63
2021/08/05 00:35:52;;;;;;;21.90;19.63;;;;;;;16.61;74.20;99479.38;4925731;29;20079;-64
2021/08/05 00:38:38;;;;;;;22.02;18.85;;;;;;;16.59;74.28;99482.00;4925215;29;20063;-63
2021/08/05 00:41:30;;;;;;;22.33;19.98;;;;;;;16.58;74.39;99475.94;4925008;29;20114;-64
2021/08/05 00:44:22;;;;;;;24.73;20.35;;;;;;;16.57;74.28;99471.59;4939794;29;20050;-63
2021/08/05 00:47:09;;;;;;;22.55;20.15;;;;;;;16.57;74.40;99468.13;4925349;29;20067;-63
2021/08/05 00:49:59;;;;;;;21.88;19.58;;;;;;;16.57;74.13;99474.22;4924983;29;20550;-63
2021/08/05 00:52:48;;;;;;;22.58;18.73;;;;;;;16.56;74.62;99467.25;4939083;29;20054;-63
2021/08/05 00:55:40;;;;;;;21.13;18.95;;;;;;;16.56;74.29;99464.63;4925219;29;20055;-63
2021/08/05 00:58:30;;;;;;;21.70;17.63;;;;;;;16.56;74.46;99463.78;4925026;29;20055;-63
2021/08/05 01:01:22;;;;;;;21.63;17.33;;;;;;;16.56;74.47;99471.63;4939381;29;20078;-64
2021/08/05 01:04:17;;;;;;;20.48;18.35;;;;;;;16.56;74.45;99458.56;4939297;29;20073;-63
2021/08/05 01:07:29;;;;;;;21.27;18.33;;;;;;;16.56;74.52;99458.56;4924907;29;20054;-64
2021/08/05 01:10:20;;;;;;;20.40;18.17;;;;;;;16.55;74.48;99448.97;4925116;29;20058;-63
2021/08/05 01:13:23;;;;;;;21.50;19.30;;;;;;;16.55;74.38;99446.38;4924504;29;20488;-65
2021/08/05 01:16:13;;;;;;;25.67;18.67;;;;;;;16.54;74.55;99447.25;4924951;29;20046;-63
2021/08/05 01:19:24;;;;;;;19.70;17.67;;;;;;;16.53;74.54;99448.13;4924753;29;20051;-63
2021/08/05 01:22:24;;;;;;;20.27;17.85;;;;;;;16.54;74.35;99453.34;4938721;29;20050;-63
2021/08/05 01:25:30;;;;;;;18.98;16.92;;;;;;;16.55;74.45;99443.75;4924927;29;20055;-63
2021/08/05 01:28:15;;;;;;;26.73;19.63;;;;;;;16.52;74.71;99439.41;4924445;29;20415;-64
2021/08/05 01:31:08;;;;;;;22.48;18.92;;;;;;;16.53;74.54;99435.06;4924204;29;20047;-64
2021/08/05 01:33:56;;;;;;;21.25;18.10;;;;;;;16.54;74.59;99442.03;4923972;29;20135;-64
2021/08/05 01:36:48;;;;;;;19.75;17.63;;;;;;;16.54;74.67;99439.41;4938768;29;20086;-63
2021/08/05 01:39:37;;;;;;;21.13;18.98;;;;;;;16.52;74.55;99435.94;4938409;29;20083;-63
2021/08/05 01:42:26;;;;;;;21.10;18.48;;;;;;;16.52;74.61;99436.78;4938636;29;20158;-63
2021/08/05 01:45:21;;;;;;;21.63;19.33;;;;;;;16.52;74.90;99434.19;4923863;29;20090;-64
2021/08/05 01:48:14;;;;;;;24.88;20.20;;;;;;;16.52;74.78;99434.19;4924253;29;20099;-63
2021/08/05 01:50:59;;;;;;;23.10;20.50;;;;;;;16.53;74.69;99435.06;4924007;29;20099;-63
2021/08/05 01:53:54;;;;;;;25.35;22.25;;;;;;;16.52;74.71;99428.09;4923641;29;20111;-63
2021/08/05 01:56:43;;;;;;;24.77;21.52;;;;;;;16.51;74.62;99427.22;4938712;29;20079;-64
2021/08/05 01:59:27;;;;;;;26.55;23.23;;;;;;;16.51;74.72;99426.38;4924453;29;20070;-65
2021/08/05 02:02:16;;;;;;;25.00;22.30;;;;;;;16.51;74.84;99426.38;4938174;29;20067;-64
2021/08/05 02:05:10;;;;;;;25.85;22.58;;;;;;;16.51;74.80;99426.38;4938343;29;20078;-64
2021/08/05 02:08:05;;;;;;;27.98;23.67;;;;;;;16.50;74.82;99419.41;4924164;29;20110;-63
2021/08/05 02:10:51;;;;;;;26.40;22.85;;;;;;;16.49;74.74;99423.81;4923932;29;20078;-63
2021/08/05 02:13:40;;;;;;;25.83;21.50;;;;;;;16.50;74.91;99415.06;4937548;29;20071;-63
2021/08/05 02:16:34;;;;;;;28.20;22.48;;;;;;;16.50;74.75;99422.91;4923960;29;20103;-64
2021/08/05 02:19:22;;;;;;;25.23;21.40;;;;;;;16.50;74.72;99412.44;4923741;29;20043;-63
2021/08/05 02:22:09;;;;;;;22.77;20.45;;;;;;;16.50;74.86;99414.19;4937733;29;20055;-64
2021/08/05 02:25:02;;;;;;;23.85;20.90;;;;;;;16.50;74.80;99414.19;4923034;29;20090;-63
2021/08/05 02:27:54;;;;;;;24.58;20.42;;;;;;;16.50;74.99;99414.19;4923617;29;20132;-64
2021/08/05 02:30:44;;;;;;;19.70;17.40;;;;;;;16.49;74.82;99410.72;4923265;29;20047;-63
2021/08/05 02:33:36;;;;;;;17.45;15.65;;;;;;;16.50;74.94;99406.34;4937583;29;20106;-64
2021/08/05 02:36:21;;;;;;;17.58;15.52;;;;;;;16.50;74.79;99398.50;4923340;29;20050;-63
2021/08/05 02:39:08;;;;;;;18.80;15.38;;;;;;;16.50;74.73;99403.72;4923463;29;20067;-64
2021/08/05 02:41:58;;;;;;;17.40;15.60;;;;;;;16.49;75.00;99399.38;4936936;29;20190;-64
2021/08/05 02:44:51;;;;;;;17.63;13.45;;;;;;;16.49;75.01;99400.25;4922818;29;20050;-65
2021/08/05 02:47:39;;;;;;;15.07;13.43;;;;;;;16.49;74.73;99394.16;4937119;29;20055;-64
2021/08/05 02:50:26;;;;;;;17.13;13.57;;;;;;;16.48;74.75;99395.91;4923126;29;20047;-63
2021/08/05 02:53:15;;;;;;;15.55;12.48;;;;;;;16.48;74.96;99392.44;4937094;29;20058;-63
2021/08/05 02:56:02;;;;;;;13.30;11.90;;;;;;;16.49;74.90;99395.03;4923127;29;20510;-64
2021/08/05 02:58:46;;;;;;;13.68;12.20;;;;;;;16.49;75.03;99396.78;4937028;29;20114;-63
2021/08/05 03:01:32;;;;;;;12.88;11.40;;;;;;;16.49;75.04;99394.16;4937004;29;20070;-64
2021/08/05 03:04:21;;;;;;;12.90;11.50;;;;;;;16.48;75.04;99387.19;4936698;29;20098;-63
2021/08/05 03:07:10;;;;;;;13.75;11.18;;;;;;;16.48;75.02;99390.69;4923030;29;20591;-65
2021/08/05 03:09:57;;;;;;;13.35;11.60;;;;;;;16.48;74.99;99384.59;4922739;29;20555;-64
2021/08/05 03:12:46;;;;;;;13.52;12.23;;;;;;;16.48;75.02;99385.47;4936582;29;20055;-63
2021/08/05 03:15:36;;;;;;;13.00;11.52;;;;;;;16.46;75.23;99381.13;4922847;29;20060;-63
2021/08/05 03:18:25;;;;;;;13.68;12.27;;;;;;;16.48;75.11;99388.06;4936843;29;20055;-64
2021/08/05 03:21:10;;;;;;;13.55;12.13;;;;;;;16.46;75.06;99379.41;4922273;29;20561;-64
2021/08/05 03:24:01;;;;;;;14.00;11.00;;;;;;;16.47;75.09;99380.25;4922975;29;20075;-63
2021/08/05 03:26:51;;;;;;;14.10;11.50;;;;;;;16.46;74.98;99374.16;4936555;29;20054;-63
2021/08/05 03:29:38;;;;;;;11.85;10.60;;;;;;;16.46;75.33;99365.44;4922252;29;20542;-63
2021/08/05 03:32:31;;;;;;;11.52;10.30;;;;;;;16.46;75.12;99366.31;4922632;29;20420;-63
2021/08/05 03:35:21;;;;;;;12.80;11.13;;;;;;;16.47;75.21;99372.41;4936977;29;20051;-65
2021/08/05 03:38:13;;;;;;;16.73;10.63;;;;;;;16.46;75.11;99368.06;4922005;29;20055;-64
2021/08/05 03:41:04;;;;;;;13.43;9.75;;;;;;;16.46;74.91;99375.91;4936350;29;20074;-64
2021/08/05 03:43:48;;;;;;;13.68;10.57;;;;;;;16.47;75.04;99377.63;4936379;29;20043;-63
2021/08/05 03:46:38;;;;;;;11.98;10.02;;;;;;;16.46;75.21;99375.91;4936732;29;20126;-63
2021/08/05 03:49:27;;;;;;;12.48;10.50;;;;;;;16.43;75.23;99369.81;4922429;29;20546;-63
2021/08/05 03:52:14;;;;;;;13.10;10.32;;;;;;;16.44;75.30;99361.09;4921929;29;20055;-63
2021/08/05 03:55:05;;;;;;;11.50;9.73;;;;;;;16.44;75.29;99365.47;4921529;29;20046;-63
2021/08/05 03:57:52;;;;;;;11.93;9.90;;;;;;;16.43;75.28;99367.22;4936312;29;20585;-64
2021/08/05 04:00:44;;;;;;;12.50;10.25;;;;;;;16.44;75.37;99362.88;4921887;29;20147;-63
2021/08/05 04:03:35;;;;;;;12.02;9.43;;;;;;;16.43;75.44;99363.75;4936094;29;20106;-65
2021/08/05 04:06:20;;;;;;;16.73;9.35;;;;;;;16.42;75.33;99360.28;4921756;29;20046;-63
2021/08/05 04:09:04;;;;;;;14.07;9.55;;;;;;;16.42;75.41;99356.78;4922147;29;20059;-64
2021/08/05 04:11:56;;;;;;;10.65;9.45;;;;;;;16.42;75.30;99364.63;4922143;29;20102;-63
2021/08/05 04:14:45;;;;;;;11.55;9.30;;;;;;;16.41;75.25;99355.94;4921760;29;20074;-63
2021/08/05 04:17:38;;;;;;;10.43;8.63;;;;;;;16.41;75.39;99353.34;4921660;29;20439;-64
2021/08/05 04:20:25;;;;;;;12.13;8.93;;;;;;;16.40;75.48;99351.59;4922320;29;20051;-65
2021/08/05 04:23:15;;;;;;;11.35;8.93;;;;;;;16.40;75.53;99359.44;4921981;29;20140;-63
2021/08/05 04:26:04;;;;;;;9.07;8.18;;;;;;;16.40;75.37;99362.06;4936105;29;20050;-63
2021/08/05 04:28:57;;;;;;;10.82;8.70;;;;;;;16.40;75.43;99361.19;4936215;29;20138;-64
2021/08/05 04:31:41;;;;;;;10.88;7.85;;;;;;;16.38;75.28;99366.47;4921758;29;20047;-63
2021/08/05 04:34:31;;;;;;;9.07;7.68;;;;;;;16.39;75.32;99369.91;4921560;29;20070;-64
2021/08/05 04:37:18;;;;;;;9.75;7.60;;;;;;;16.40;75.56;99364.69;4921785;29;20122;-64
2021/08/05 04:40:05;;;;;;;9.57;7.68;;;;;;;16.38;75.52;99371.69;4936205;29;20399;-63
2021/08/05 04:42:55;;;;;;;11.43;8.20;;;;;;;16.39;75.72;99360.34;4921817;29;20511;-64
2021/08/05 04:45:42;;;;;;;8.45;7.30;;;;;;;16.38;75.60;99366.47;4921591;29;20051;-63
2021/08/05 04:48:34;;;;;;;9.00;7.47;;;;;;;16.37;75.57;99361.25;4936143;29;20050;-63
2021/08/05 04:51:21;;;;;;;9.32;8.30;;;;;;;16.38;75.49;99362.97;4935401;29;20534;-64
2021/08/05 04:54:11;;;;;;;11.43;7.90;;;;;;;16.38;75.56;99370.81;4920507;29;20047;-63
2021/08/05 04:56:55;;;;;;;10.27;8.10;;;;;;;16.38;75.58;99360.34;4921427;29;20541;-63
2021/08/05 04:59:47;;;;;;;11.65;8.18;;;;;;;16.38;75.62;99369.06;4935817;29;20055;-63
2021/08/05 05:02:37;;;;;;;9.20;8.20;;;;;;;16.37;75.60;99362.13;4935274;29;20110;-65
2021/08/05 05:05:28;;;;;;;10.35;7.75;;;;;;;16.37;75.45;99356.88;4936196;29;20095;-64
2021/08/05 05:08:22;;;;;;;9.50;7.43;;;;;;;16.37;75.49;99356.88;4939242;29;20424;-64
2021/08/05 05:11:12;;;;;;;9.93;7.70;;;;;;;16.37;75.41;99359.50;4939056;29;20479;-63
2021/08/05 05:14:07;;;;;;;11.50;8.35;;;;;;;16.35;75.70;99345.59;4938789;29;20138;-63
2021/08/05 05:16:53;;;;;;;12.10;8.77;;;;;;;16.37;75.79;99349.03;4939649;29;20134;-63
2021/08/05 05:19:43;;;;;;;16.58;7.97;;;;;;;16.37;75.79;99346.44;4939105;29;20106;-63
2021/08/05 05:22:35;;;;;;;9.68;7.47;;;;;;;16.37;75.66;99341.19;4939278;29;20063;-63
2021/08/05 05:25:25;;;;;;;11.52;8.77;;;;;;;16.38;75.79;99342.03;4924873;29;20090;-63
2021/08/05 05:28:10;;;;;;;16.23;8.43;;;;;;;16.38;75.58;99345.53;4924832;29;20054;-64
2021/08/05 05:31:03;;;;;;;12.90;8.32;;;;;;;16.38;75.72;99339.44;4938686;29;20083;-62
2021/08/05 05:33:53;;;;;;;13.18;8.05;;;;;;;16.38;75.67;99336.81;4938710;29;20199;-64
2021/08/05 05:36:45;;;;;;;13.60;8.65;;;;;;;16.39;75.98;99338.53;4924434;29;20182;-63
2021/08/05 05:39:30;;;;;;;14.45;9.23;;;;;;;16.37;75.89;99337.72;4939012;29;20051;-64
2021/08/05 05:42:19;;;;;;;;;;;;;;;16.38;75.57;99336.81;4939059;29;20102;-63
2021/08/05 05:45:13;;;;;;;9.02;8.10;;;;;;;16.37;75.68;99333.34;4924544;29;19937;-63
2021/08/05 05:48:11;;;;;;;10.32;8.20;;;;;;;16.38;75.63;99331.59;4924504;29;20134;-64
2021/08/05 05:51:03;;;;;;;9.35;7.32;;;;;;;16.39;75.80;99333.31;4924193;29;20066;-64
2021/08/05 05:53:52;;;;;;;11.13;8.68;;;;;;;16.38;76.28;99335.09;4937938;29;20082;-64
2021/08/05 05:56:39;;;;;;;9.45;7.93;;;;;;;16.38;75.87;99332.47;4938543;29;20404;-65
2021/08/05 05:59:23;;;;;;;13.88;9.30;;;;;;;16.39;75.96;99334.19;4938319;29;20099;-64
2021/08/05 06:02:08;;;;;;;12.68;8.48;;;;;;;16.39;75.94;99339.41;4938003;29;20054;-63
2021/08/05 06:04:52;;;;;;;;;;;;;;;16.39;75.95;99335.94;4924818;29;20111;-63
2021/08/05 06:07:49;;;;;;;14.80;8.57;;;;;;;16.39;75.92;99338.53;4938433;29;20326;-63
2021/08/05 06:10:41;;;;;;;8.52;7.22;;;;;;;16.40;76.04;99337.66;4937933;29;20054;-64
2021/08/05 06:13:34;;;;;;;11.32;8.02;;;;;;;16.40;75.82;99340.28;4938132;29;20467;-64
2021/08/05 06:16:26;;;;;;;11.80;8.02;;;;;;;16.40;76.00;99338.53;4923920;29;20046;-63
2021/08/05 06:19:19;;;;;;;16.63;8.55;;;;;;;16.39;76.14;99331.56;4937783;29;20095;-64
2021/08/05 06:22:04;;;;;;;11.18;7.57;;;;;;;16.41;76.10;99345.50;4938056;29;20054;-64
2021/08/05 06:24:51;;;;;;;14.68;7.88;;;;;;;16.41;76.04;99334.16;4937924;29;20135;-63
2021/08/05 06:27:45;;;;;;;10.50;7.38;;;;;;;16.42;76.19;99328.03;4923229;29;20114;-63
2021/08/05 06:30:35;;;;;;;;;;;;;;;16.41;75.94;99336.75;4938153;29;20190;-63
2021/08/05 06:33:28;;;;;;;9.15;7.07;;;;;;;16.40;76.05;99328.06;4923471;29;19925;-63
2021/08/05 06:36:15;;;;;;;10.52;7.20;;;;;;;16.39;76.22;99326.34;4923668;29;20086;-63
2021/08/05 06:39:05;;;;;;;9.30;7.15;;;;;;;16.41;76.18;99335.03;4923064;29;20188;-63
2021/08/05 06:41:58;;;;;;;13.90;7.75;;;;;;;16.41;75.97;99326.31;4937556;29;20054;-64
2021/08/05 06:44:47;;;;;;;16.85;8.40;;;;;;;16.42;76.28;99335.88;4937407;29;20151;-64
2021/08/05 06:47:31;;;;;;;13.85;7.13;;;;;;;16.42;75.99;99341.09;4937261;29;20059;-64
2021/08/05 06:50:21;;;;;;;8.35;7.03;;;;;;;16.43;76.22;99338.44;4937696;29;20050;-64
2021/08/05 06:53:11;;;;;;;12.88;7.70;;;;;;;16.43;76.14;99335.84;4937232;29;20143;-63
2021/08/05 06:56:06;;;;;;;11.65;7.13;;;;;;;16.43;76.31;99333.22;4923297;29;20127;-64
2021/08/05 06:58:52;;;;;;;13.90;7.55;;;;;;;16.45;76.31;99333.22;4937069;29;20067;-64
2021/08/05 07:01:41;;;;;;;10.82;7.80;;;;;;;16.46;76.41;99334.94;4922339;29;20063;-63
2021/08/05 07:04:31;;;;;;;13.48;7.68;;;;;;;16.46;76.44;99337.56;4923131;29;20102;-64
2021/08/05 07:07:19;;;;;;;15.18;7.93;;;;;;;16.47;76.56;99335.78;4922976;29;20051;-63
2021/08/05 07:10:05;;;;;;;12.05;7.18;;;;;;;16.47;76.37;99336.66;4922637;29;20530;-64
2021/08/05 07:12:49;;;;;;;12.63;7.55;;;;;;;16.48;76.34;99345.34;4922401;29;20081;-64
2021/08/05 07:15:42;;;;;;;15.48;8.23;;;;;;;16.48;76.50;99337.50;4936683;29;20052;-64
2021/08/05 07:18:34;;;;;;;13.32;7.43;;;;;;;16.48;76.33;99337.50;4922778;29;20058;-63
2021/08/05 07:21:21;;;;;;;8.52;6.75;;;;;;;16.49;76.69;99336.63;4922875;29;20067;-63
2021/08/05 07:24:12;;;;;;;11.90;6.75;;;;;;;16.49;76.23;99332.25;4937312;29;20099;-63
2021/08/05 07:26:59;;;;;;;9.93;6.47;;;;;;;16.50;76.12;99330.50;4922342;29;20054;-63
2021/08/05 07:29:51;;;;;;;11.93;6.93;;;;;;;16.51;76.33;99334.84;4921849;29;20119;-63
2021/08/05 07:32:41;;;;;;;13.48;7.50;;;;;;;16.51;76.22;99338.31;4936873;29;20086;-64
2021/08/05 07:35:25;;;;;;;9.07;7.32;;;;;;;16.52;76.17;99336.56;4922333;29;20054;-64
2021/08/05 07:38:17;;;;;;;10.50;6.47;;;;;;;16.54;76.21;99337.41;4936212;29;20046;-63
2021/08/05 07:41:10;;;;;;;9.55;6.90;;;;;;;16.56;76.14;99340.84;4936888;29;20054;-64
2021/08/05 07:43:54;;;;;;;10.20;5.80;;;;;;;16.56;76.17;99333.84;4936339;29;20050;-64
2021/08/05 07:46:48;;;;;;;8.52;6.60;;;;;;;16.57;76.08;99337.34;4936047;29;20492;-64
2021/08/05 07:49:37;;;;;;;9.55;6.60;;;;;;;16.58;76.19;99336.44;4922228;29;20046;-64
2021/08/05 07:52:26;;;;;;;10.30;6.50;;;;;;;16.58;75.99;99326.84;4921807;29;20480;-64
2021/08/05 07:55:11;;;;;;;8.38;6.13;;;;;;;16.60;76.00;99326.78;4936418;29;20522;-64
2021/08/05 07:57:55;;;;;;;;;;;;;;;16.59;76.06;99328.56;4922712;29;20083;-64
2021/08/05 08:00:39;;;;;;;6.70;4.97;;;;;;;16.59;75.95;99322.44;4922277;29;19921;-64
2021/08/05 08:03:26;;;;;;;7.75;5.55;;;;;;;16.60;76.19;99318.94;4916050;29;20107;-65
2021/08/05 08:06:15;;;;;;;6.85;5.57;;;;;;;16.61;75.95;99319.81;4917220;29;20055;-64
2021/08/05 08:09:03;;;;;;;7.85;5.22;;;;;;;16.62;75.96;99325.00;4916261;29;20116;-64
2021/08/05 08:11:53;;;;;;;7.22;4.63;;;;;;;16.63;75.89;99324.13;4917080;29;20107;-65
2021/08/05 08:14:40;;;;;;;7.53;5.38;;;;;;;16.63;75.53;99321.50;4917036;29;20103;-64
2021/08/05 08:17:24;;;;;;;8.57;5.30;;;;;;;16.64;76.00;99315.38;4917239;29;20055;-64
2021/08/05 08:20:11;;;;;;;9.52;6.10;;;;;;;16.65;75.81;99311.03;4917526;29;20075;-63
2021/08/05 08:22:56;;;;;;;6.43;4.95;;;;;;;16.66;76.06;99316.22;4916905;29;20059;-64
2021/08/05 08:25:40;;;;;;;6.00;5.05;;;;;;;16.66;75.84;99310.97;4917224;29;20051;-64
2021/08/05 08:28:32;;;;;;;7.57;5.57;;;;;;;16.67;75.70;99317.94;4917259;29;20046;-63
2021/08/05 08:31:19;;;;;;;5.65;4.72;;;;;;;16.68;75.71;99309.19;4916223;29;20420;-64
2021/08/05 08:34:11;;;;;;;5.97;4.60;;;;;;;16.68;75.81;99319.66;4916875;29;20051;-63
2021/08/05 08:37:04;;;;;;;6.47;5.15;;;;;;;16.69;75.53;99307.44;4917079;29;20572;-64
2021/08/05 08:39:54;;;;;;;6.93;4.90;;;;;;;16.70;75.52;99311.78;4916564;29;20461;-64
2021/08/05 08:42:45;;;;;;;5.97;5.15;;;;;;;16.71;75.42;99310.88;4920115;29;20067;-64
2021/08/05 08:45:29;;;;;;;5.57;4.82;;;;;;;16.72;75.65;99308.25;4919688;29;20051;-64
2021/08/05 08:48:28;;;;;;;6.18;5.57;;;;;;;16.74;75.42;99310.81;4920624;29;20464;-64
2021/08/05 08:51:13;;;;;;;9.30;5.40;;;;;;;16.75;75.63;99304.69;4919567;29;20059;-64
2021/08/05 08:54:00;;;;;;;9.20;4.53;;;;;;;16.75;75.37;99302.09;4919263;29;20091;-64
2021/08/05 08:56:47;;;;;;;6.88;5.63;;;;;;;16.77;75.33;99296.81;4919634;29;20103;-64
2021/08/05 08:59:32;;;;;;;11.05;5.30;;;;;;;16.78;75.24;99290.69;4920075;29;20059;-64
2021/08/05 09:02:17;;;;;;;6.13;4.80;;;;;;;16.79;75.12;99295.91;4929160;29;20066;-64
2021/08/05 09:05:05;;;;;;;6.32;4.80;;;;;;;16.80;75.39;99292.38;4924990;29;20511;-64
2021/08/05 09:07:49;;;;;;;9.27;5.40;;;;;;;16.83;75.17;99286.22;4939331;29;20076;-64
2021/08/05 09:10:33;;;;;;;5.43;4.63;;;;;;;16.84;75.29;99288.78;4939052;29;20059;-64
2021/08/05 09:13:17;;;;;;;6.72;5.03;;;;;;;16.87;75.26;99282.66;4939207;29;20102;-65
2021/08/05 09:16:07;;;;;;;5.90;5.30;;;;;;;16.90;75.26;99275.59;4939528;29;20054;-64
2021/08/05 09:19:14;;;;;;;6.97;4.95;;;;;;;16.93;75.07;99277.25;4939118;29;20066;-65
2021/08/05 09:22:04;;;;;;;6.28;5.53;;;;;;;16.95;75.10;99272.88;4924735;29;20047;-65
2021/08/05 09:24:49;;;;;;;6.00;4.72;;;;;;;16.96;75.08;99274.63;4923756;29;20051;-63
2021/08/05 09:27:33;;;;;;;8.73;5.20;;;;;;;16.98;75.33;99274.56;4924830;29;20538;-65
2021/08/05 09:30:46;;;;;;;7.45;4.22;;;;;;;16.97;75.07;99273.72;4939000;29;20098;-65
2021/08/05 09:33:36;;;;;;;6.50;4.50;;;;;;;16.98;74.97;99272.81;4930090;29;20156;-65
2021/08/05 09:36:24;;;;;;;6.93;4.90;;;;;;;16.98;74.89;99264.09;4924546;29;20051;-64
2021/08/05 09:39:28;;;;;;;7.07;4.45;;;;;;;16.99;74.85;99269.31;4924390;29;20051;-64
2021/08/05 09:42:14;;;;;;;7.00;4.82;;;;;;;17.00;74.65;99263.19;4938794;29;20099;-64
2021/08/05 09:45:00;;;;;;;6.88;4.47;;;;;;;16.99;74.56;99261.47;4924156;29;20094;-64
2021/08/05 09:47:44;;;;;;;7.30;3.67;;;;;;;17.01;74.64;99261.41;4938701;29;20460;-64
2021/08/05 09:50:30;;;;;;;5.07;3.90;;;;;;;17.02;74.67;99264.00;4938589;29;20054;-64
2021/08/05 09:53:14;;;;;;;5.50;4.60;;;;;;;17.03;74.61;99260.50;4923503;29;20094;-65
2021/08/05 09:56:11;;;;;;;5.45;4.13;;;;;;;17.04;74.79;99269.22;4938561;29;20107;-64
2021/08/05 09:59:07;;;;;;;8.15;5.22;;;;;;;17.03;74.52;99257.88;4924358;29;20054;-64
2021/08/05 10:02:05;;;;;;;6.80;4.55;;;;;;;17.04;74.67;99257.00;4923635;29;20059;-64
2021/08/05 10:05:13;;;;;;;6.05;4.85;;;;;;;17.05;74.53;99257.84;4924164;29;20098;-65
2021/08/05 10:08:09;;;;;;;6.53;5.00;;;;;;;17.05;74.35;99250.84;4938480;29;20109;-64
2021/08/05 10:11:02;;;;;;;6.82;4.63;;;;;;;17.04;74.45;99248.25;4938373;29;20103;-65
2021/08/05 10:13:52;;;;;;;6.75;5.13;;;;;;;17.07;74.43;99249.94;4923526;29;20067;-63
2021/08/05 10:16:40;;;;;;;6.22;4.45;;;;;;;17.05;74.72;99240.38;4938200;29;20058;-65
2021/08/05 10:19:25;;;;;;;8.50;4.78;;;;;;;17.06;74.53;99230.78;4923419;29;20059;-64
2021/08/05 10:22:23;;;;;;;7.45;5.00;;;;;;;17.07;74.59;99232.50;4937960;29;20055;-64
2021/08/05 10:25:14;;;;;;;5.93;4.78;;;;;;;17.08;74.24;99235.97;4937830;29;20058;-64
2021/08/05 10:28:06;;;;;;;6.80;4.65;;;;;;;17.09;74.18;99228.09;4937845;29;20102;-64
2021/08/05 10:31:00;;;;;;;5.95;4.45;;;;;;;17.09;74.13;99229.81;4923767;29;20558;-64
2021/08/05 10:33:52;;;;;;;7.50;5.07;;;;;;;17.10;74.33;99228.94;4937509;29;20099;-64
2021/08/05 10:36:37;;;;;;;7.85;5.57;;;;;;;17.11;74.46;99239.38;4923445;29;20043;-64
2021/08/05 10:39:24;;;;;;;;;;;;;;;17.10;74.10;99232.44;4938030;29;20087;-64
2021/08/05 10:42:11;;;;;;;9.55;5.57;;;;;;;17.11;74.28;99235.88;4937836;29;19946;-64
2021/08/05 10:45:06;;;;;;;7.70;4.70;;;;;;;17.13;74.18;99232.31;4937475;29;20489;-63
2021/08/05 10:48:01;;;;;;;11.43;4.65;;;;;;;17.13;74.03;99229.72;4937535;29;20059;-64
2021/08/05 10:50:50;;;;;;;7.97;5.20;;;;;;;17.13;74.20;99234.94;4937207;29;20481;-64
2021/08/05 10:53:55;;;;;;;5.85;4.43;;;;;;;17.14;73.98;99227.97;4937179;29;20047;-64
2021/08/05 10:57:17;;;;;;;7.45;4.63;;;;;;;17.14;74.12;99220.97;4937223;29;20051;-64
2021/08/05 11:00:13;;;;;;;6.22;4.80;;;;;;;17.14;74.12;99218.34;4922458;29;20095;-65
2021/08/05 11:02:58;;;;;;;5.15;4.28;;;;;;;17.15;74.16;99214.81;4936386;29;20058;-63
2021/08/05 11:05:42;;;;;;;6.95;4.88;;;;;;;17.15;74.11;99217.44;4937209;29;20063;-63
2021/08/05 11:08:27;;;;;;;6.10;4.35;;;;;;;17.17;73.99;99212.19;4922826;29;20051;-64
2021/08/05 11:11:30;;;;;;;6.75;4.60;;;;;;;17.17;73.85;99210.41;4922645;29;20103;-64
2021/08/05 11:14:42;;;;;;;8.57;4.72;;;;;;;17.20;74.03;99201.66;4922381;29;20051;-63
2021/08/05 11:17:34;;;;;;;8.15;4.82;;;;;;;17.21;73.97;99205.97;4922904;29;20047;-63
2021/08/05 11:20:24;;;;;;;6.20;4.40;;;;;;;17.23;74.03;99198.09;4921685;29;20419;-64
2021/08/05 11:23:35;;;;;;;5.72;4.30;;;;;;;17.24;74.02;99187.56;4922567;29;20050;-64
2021/08/05 11:26:21;;;;;;;5.82;4.07;;;;;;;17.28;74.05;99194.44;4922188;29;20051;-65
2021/08/05 11:29:05;;;;;;;6.57;4.55;;;;;;;17.32;73.95;99179.50;4936743;29;20135;-64
2021/08/05 11:31:57;;;;;;;5.63;4.47;;;;;;;17.34;73.76;99183.84;4936965;29;20074;-64
2021/08/05 11:35:22;;;;;;;7.93;5.32;;;;;;;17.36;73.98;99168.06;4922257;29;20050;-64
2021/08/05 11:38:17;;;;;;;7.40;4.75;;;;;;;17.39;73.66;99167.13;4828369;29;20064;-64
2021/08/05 11:41:05;;;;;;;6.28;4.57;;;;;;;17.40;73.74;99163.59;4936349;29;20058;-65
2021/08/05 11:44:21;;;;;;;6.60;4.75;;;;;;;17.42;73.60;99161.81;4936663;29;20559;-64
2021/08/05 11:47:05;;;;;;;7.60;5.15;;;;;;;17.43;73.51;99150.44;4922697;29;20051;-64
2021/08/05 11:50:16;;;;;;;4.85;3.92;;;;;;;17.44;73.54;99152.16;4936382;29;20110;-65
2021/08/05 11:53:02;;;;;;;7.30;4.75;;;;;;;17.44;73.50;99149.53;4922030;29;20098;-65
2021/08/05 11:55:52;;;;;;;5.25;4.18;;;;;;;17.44;73.32;99152.16;4921620;29;20050;-65
2021/08/05 11:58:51;;;;;;;6.75;4.30;;;;;;;17.44;73.26;99146.91;4921797;29;20530;-64
2021/08/05 12:01:37;;;;;;;8.15;4.00;;;;;;;17.43;73.39;99134.72;4936245;29;20063;-65
2021/08/05 12:04:24;;;;;;;12.15;4.43;;;;;;;17.43;73.37;99147.81;4936234;29;20120;-65
2021/08/05 12:07:21;;;;;;;5.88;4.20;;;;;;;17.44;73.32;99136.44;4936619;29;20050;-65
2021/08/05 12:10:21;;;;;;;5.75;3.92;;;;;;;17.43;73.17;99127.75;4936571;29;20067;-64
2021/08/05 12:13:19;;;;;;;3.88;3.40;;;;;;;17.44;73.30;99131.19;4936095;29;20091;-64
2021/08/05 12:16:03;;;;;;;4.72;3.92;;;;;;;17.45;72.95;99127.69;4926564;29;20046;-65
2021/08/05 12:18:47;;;;;;;7.07;4.25;;;;;;;17.45;73.17;99118.06;4942501;29;20058;-64
2021/08/05 12:21:32;;;;;;;7.45;4.07;;;;;;;17.46;73.45;99111.06;4942879;29;20466;-64
2021/08/05 12:24:22;;;;;;;5.38;4.00;;;;;;;17.47;73.26;99112.78;4928254;29;20522;-64
2021/08/05 12:27:08;;;;;;;5.70;3.90;;;;;;;17.48;73.35;99117.97;4927123;29;20054;-64
2021/08/05 12:30:09;;;;;;;6.05;4.03;;;;;;;17.49;73.24;99111.00;4927956;29;20071;-64
2021/08/05 12:33:11;;;;;;;5.07;4.03;;;;;;;17.49;73.41;99105.75;4928183;29;20098;-65
2021/08/05 12:36:07;;;;;;;4.65;3.50;;;;;;;17.49;73.38;99109.22;4942394;29;20563;-64
2021/08/05 12:39:08;;;;;;;4.75;3.80;;;;;;;17.52;73.17;99113.50;4928158;29;20055;-65
2021/08/05 12:41:58;;;;;;;4.00;3.30;;;;;;;17.52;73.04;99103.03;4927962;29;20479;-65
2021/08/05 12:44:43;;;;;;;4.68;3.88;;;;;;;17.54;72.99;99110.88;4942646;29;20110;-64
2021/08/05 12:47:33;;;;;;;5.80;3.85;;;;;;;17.54;72.98;99111.69;4942611;29;20530;-65
2021/08/05 12:50:22;;;;;;;6.93;3.45;;;;;;;17.54;73.14;99098.59;4942297;29;20479;-65
2021/08/05 12:53:30;;;;;;;4.65;3.47;;;;;;;17.58;73.09;99104.66;4927934;29;20054;-64
2021/08/05 12:56:19;;;;;;;5.18;4.38;;;;;;;17.58;72.83;99110.72;4941986;29;20431;-66
2021/08/05 12:59:06;;;;;;;9.80;4.93;;;;;;;17.59;72.89;99101.97;4927923;29;20082;-65
2021/08/05 13:02:15;;;;;;;5.43;4.07;;;;;;;17.59;72.78;99095.88;4942148;29;20467;-65
2021/08/05 13:05:09;;;;;;;5.75;3.70;;;;;;;17.59;72.69;99104.59;4942303;29;20498;-65
2021/08/05 13:08:04;;;;;;;4.75;3.47;;;;;;;17.60;72.78;99090.59;4941908;29;20187;-64
2021/08/05 13:10:56;;;;;;;4.43;3.40;;;;;;;17.62;72.79;99095.78;4942323;29;20047;-66
2021/08/05 13:13:53;;;;;;;5.15;3.65;;;;;;;17.63;72.72;99100.13;4941882;29;20540;-65
2021/08/05 13:17:03;;;;;;;4.32;3.35;;;;;;;17.64;72.82;99087.00;4927951;29;20455;-64
2021/08/05 13:20:02;;;;;;;4.80;4.15;;;;;;;17.64;72.61;99094.84;4927966;29;20147;-64